Time,TemperatureF,DewpointF,PressureIn,WindDirection,WindDirectionDegrees,WindSpeedMPH,WindSpeedGustMPH,Humidity,HourlyPrecipIn,Conditions,Clouds,dailyrainin,SoftwareType,DateUTC
2013-01-27 00:02:00,39.0,30.0,-100.00,ESE,105,2.0,5.0,69,0.00,,,-99.99,,2013-01-27 00:02:00,
2013-01-27 00:11:00,39.0,30.0,-100.00,East,95,3.0,4.0,69,0.00,,,-99.99,,2013-01-27 00:11:00,
2013-01-27 00:21:00,39.0,30.0,-100.00,ESE,105,0.0,4.0,69,0.00,,,-99.99,,2013-01-27 00:21:00,
2013-01-27 00:32:00,39.0,30.0,-100.00,SW,220,2.0,3.0,70,0.00,,,-99.99,,2013-01-27 00:32:00,
2013-01-27 00:41:00,38.0,30.0,-100.00,South,180,0.0,5.0,70,0.00,,,-99.99,,2013-01-27 00:41:00,
2013-01-27 00:51:00,38.0,30.0,-100.00,East,90,2.0,4.0,72,0.00,,,-99.99,,2013-01-27 00:51:00,
2013-01-27 01:01:00,38.0,30.0,-100.00,NE,35,1.0,4.0,73,0.00,,,-99.99,,2013-01-27 01:01:00,
2013-01-27 01:11:00,37.0,30.0,-100.00,East,100,1.0,2.0,73,0.00,,,-99.99,,2013-01-27 01:11:00,
2013-01-27 01:22:00,37.0,30.0,-100.00,East,100,1.0,3.0,74,0.00,,,-99.99,,2013-01-27 01:22:00,
2013-01-27 01:32:00,37.0,30.0,-100.00,NE,55,1.0,2.0,74,0.00,,,-99.99,,2013-01-27 01:32:00,
2013-01-27 01:41:00,37.0,30.0,-100.00,ENE,60,1.0,3.0,75,0.00,,,-99.99,,2013-01-27 01:41:00,
2013-01-27 01:51:00,37.0,30.0,-100.00,East,80,1.0,3.0,75,0.00,,,-99.99,,2013-01-27 01:51:00,
2013-01-27 02:01:00,37.0,30.0,-100.00,ESE,120,1.0,3.0,75,0.00,,,-99.99,,2013-01-27 02:01:00,
2013-01-27 02:11:00,37.0,30.0,-100.00,ENE,70,9.0,10.0,76,0.00,,,-99.99,,2013-01-27 02:11:00,
2013-01-27 02:21:00,36.0,31.0,-100.00,NE,45,9.0,11.0,81,0.00,,,-99.99,,2013-01-27 02:21:00,
2013-01-27 02:31:00,36.0,31.0,-100.00,NE,50,11.0,14.0,82,0.00,,,-99.99,,2013-01-27 02:31:00,
2013-01-27 02:52:00,36.0,31.0,-100.00,NNE,30,6.0,8.0,84,0.00,,,-99.99,,2013-01-27 02:52:00,
2013-01-27 03:02:00,36.0,32.0,-100.00,NNE,20,6.0,7.0,84,0.00,,,-99.99,,2013-01-27 03:02:00,
2013-01-27 03:11:00,36.0,32.0,-100.00,NNE,25,4.0,7.0,84,0.00,,,-99.99,,2013-01-27 03:11:00,
2013-01-27 03:21:00,36.0,31.0,-100.00,ESE,110,3.0,4.0,84,0.00,,,-99.99,,2013-01-27 03:21:00,
2013-01-27 03:32:00,35.0,31.0,-100.00,ENE,70,4.0,8.0,87,0.00,,,-99.99,,2013-01-27 03:32:00,
2013-01-27 03:42:00,35.0,31.0,-100.00,East,80,6.0,8.0,87,0.00,,,-99.99,,2013-01-27 03:42:00,
2013-01-27 03:51:00,35.0,32.0,-100.00,East,80,6.0,9.0,89,0.00,,,-99.99,,2013-01-27 03:51:00,
2013-01-27 04:01:00,35.0,32.0,-100.00,NE,55,8.0,9.0,89,0.00,,,-99.99,,2013-01-27 04:01:00,
2013-01-27 04:11:00,35.0,32.0,-100.00,NE,50,6.0,9.0,89,0.00,,,-99.99,,2013-01-27 04:11:00,
2013-01-27 04:21:00,35.0,32.0,-100.00,ENE,60,6.0,9.0,89,0.00,,,-99.99,,2013-01-27 04:21:00,
2013-01-27 04:32:00,35.0,32.0,-100.00,ENE,70,7.0,8.0,89,0.00,,,-99.99,,2013-01-27 04:32:00,
2013-01-27 04:41:00,35.0,32.0,-100.00,ENE,70,9.0,12.0,89,0.03,,,-99.99,,2013-01-27 04:41:00,
2013-01-27 04:51:00,35.0,33.0,-100.00,East,85,7.0,10.0,90,0.00,,,-99.99,,2013-01-27 04:51:00,
2013-01-27 05:03:00,35.0,32.0,-100.00,East,90,5.0,9.0,91,0.00,,,-99.99,,2013-01-27 05:03:00,
2013-01-27 05:12:00,34.0,32.0,-100.00,ENE,75,4.0,6.0,91,0.00,,,-99.99,,2013-01-27 05:12:00,
2013-01-27 05:22:00,34.0,32.0,-100.00,ENE,65,3.0,4.0,92,0.00,,,-99.99,,2013-01-27 05:22:00,
2013-01-27 05:32:00,34.0,32.0,-100.00,NE,45,0.0,4.0,91,0.00,,,-99.99,,2013-01-27 05:32:00,
2013-01-27 05:41:00,34.0,32.0,-100.00,South,185,1.0,2.0,91,0.00,,,-99.99,,2013-01-27 05:41:00,
2013-01-27 05:52:00,34.0,32.0,-100.00,East,85,1.0,2.0,92,0.00,,,-99.99,,2013-01-27 05:52:00,
2013-01-27 06:01:00,34.0,32.0,-100.00,West,275,1.0,2.0,92,0.00,,,-99.99,,2013-01-27 06:01:00,
2013-01-27 06:11:00,34.0,32.0,-100.00,SW,235,1.0,3.0,92,0.00,,,-99.99,,2013-01-27 06:11:00,
2013-01-27 06:21:00,35.0,33.0,-100.00,SSE,155,1.0,4.0,92,0.00,,,-99.99,,2013-01-27 06:21:00,
2013-01-27 06:32:00,34.0,32.0,-100.00,WNW,300,1.0,3.0,92,0.00,,,-99.99,,2013-01-27 06:32:00,
2013-01-27 06:41:00,35.0,33.0,-100.00,WSW,245,4.0,6.0,90,0.00,,,-99.99,,2013-01-27 06:41:00,
2013-01-27 06:51:00,35.0,32.0,-100.00,WSW,250,4.0,7.0,90,0.00,,,-99.99,,2013-01-27 06:51:00,
2013-01-27 07:01:00,35.0,32.0,-100.00,West,275,6.0,8.0,89,0.00,,,-99.99,,2013-01-27 07:01:00,
2013-01-27 07:13:00,35.0,32.0,-100.00,West,275,9.0,11.0,89,0.00,,,-99.99,,2013-01-27 07:13:00,
2013-01-27 07:21:00,35.0,32.0,-100.00,SW,235,9.0,10.0,90,0.00,,,-99.99,,2013-01-27 07:21:00,
2013-01-27 07:31:00,35.0,32.0,-100.00,West,260,6.0,9.0,91,0.00,,,-99.99,,2013-01-27 07:31:00,
2013-01-27 07:41:00,34.0,32.0,-100.00,West,275,6.0,7.0,92,0.00,,,-99.99,,2013-01-27 07:41:00,
2013-01-27 07:51:00,34.0,32.0,-100.00,WSW,250,6.0,8.0,92,0.00,,,-99.99,,2013-01-27 07:51:00,
2013-01-27 08:01:00,34.0,32.0,-100.00,WNW,290,6.0,7.0,92,0.00,,,-99.99,,2013-01-27 08:01:00,
2013-01-27 08:11:00,34.0,32.0,-100.00,WNW,290,5.0,7.0,92,0.00,,,-99.99,,2013-01-27 08:11:00,
2013-01-27 08:22:00,34.0,32.0,-100.00,WNW,300,6.0,9.0,92,0.00,,,-99.99,,2013-01-27 08:22:00,
2013-01-27 08:31:00,34.0,32.0,-100.00,NW,310,6.0,7.0,92,0.01,,,-99.99,,2013-01-27 08:31:00,
2013-01-27 08:42:00,33.0,31.0,-100.00,WNW,300,6.0,8.0,93,0.00,,,-99.99,,2013-01-27 08:42:00,
2013-01-27 08:52:00,33.0,32.0,-100.00,WNW,295,7.0,8.0,93,0.00,,,-99.99,,2013-01-27 08:52:00,
2013-01-27 09:02:00,33.0,32.0,-100.00,NW,310,9.0,11.0,94,0.01,,,-99.99,,2013-01-27 09:02:00,
2013-01-27 09:11:00,33.0,32.0,-100.00,WNW,295,9.0,11.0,94,0.01,,,-99.99,,2013-01-27 09:11:00,
2013-01-27 09:21:00,33.0,33.0,-100.00,WSW,255,9.0,12.0,96,0.01,,,-99.99,,2013-01-27 09:21:00,
2013-01-27 09:32:00,33.0,33.0,-100.00,SW,235,11.0,14.0,97,0.01,,,-99.99,,2013-01-27 09:32:00,
2013-01-27 09:41:00,33.0,33.0,-100.00,WSW,240,12.0,14.0,98,0.04,,,-99.99,,2013-01-27 09:41:00,
2013-01-27 09:51:00,33.0,33.0,-100.00,WSW,240,9.0,15.0,98,0.01,,,-99.99,,2013-01-27 09:51:00,
2013-01-27 10:01:00,33.0,33.0,-100.00,West,280,6.0,11.0,98,0.01,,,-99.99,,2013-01-27 10:01:00,
2013-01-27 10:11:00,33.0,32.0,-100.00,West,275,6.0,9.0,98,0.00,,,-99.99,,2013-01-27 10:11:00,
2013-01-27 10:21:00,33.0,33.0,-100.00,WSW,250,9.0,11.0,99,0.00,,,-99.99,,2013-01-27 10:21:00,
2013-01-27 10:31:00,32.0,32.0,-100.00,West,270,9.0,11.0,99,0.03,,,-99.99,,2013-01-27 10:31:00,
2013-01-27 10:41:00,32.0,32.0,-100.00,West,275,9.0,11.0,99,0.01,,,-99.99,,2013-01-27 10:41:00,
2013-01-27 10:51:00,32.0,32.0,-100.00,West,270,10.0,11.0,99,0.00,,,-99.99,,2013-01-27 10:51:00,
2013-01-27 11:01:00,32.0,32.0,-100.00,West,275,11.0,12.0,99,0.00,,,-99.99,,2013-01-27 11:01:00,
2013-01-27 11:11:00,32.0,32.0,-100.00,West,280,9.0,13.0,99,0.01,,,-99.99,,2013-01-27 11:11:00,
2013-01-27 11:21:00,32.0,32.0,-100.00,WNW,295,7.0,12.0,99,0.01,,,-99.99,,2013-01-27 11:21:00,
2013-01-27 11:32:00,31.0,31.0,-100.00,NW,305,6.0,9.0,99,0.00,,,-99.99,,2013-01-27 11:32:00,
2013-01-27 11:42:00,31.0,31.0,-100.00,WNW,295,7.0,10.0,99,0.00,,,-99.99,,2013-01-27 11:42:00,
2013-01-27 11:52:00,31.0,31.0,-100.00,West,265,11.0,14.0,99,0.00,,,-99.99,,2013-01-27 11:52:00,
2013-01-27 12:02:00,32.0,32.0,-100.00,WSW,250,15.0,18.0,99,0.00,,,-99.99,,2013-01-27 12:02:00,
2013-01-27 12:11:00,32.0,32.0,-100.00,WSW,250,15.0,19.0,99,0.01,,,-99.99,,2013-01-27 12:11:00,
2013-01-27 12:21:00,32.0,32.0,-100.00,West,270,14.0,21.0,99,0.03,,,-99.99,,2013-01-27 12:21:00,
2013-01-27 12:32:00,32.0,32.0,-100.00,West,270,12.0,17.0,99,0.01,,,-99.99,,2013-01-27 12:32:00,
2013-01-27 12:42:00,32.0,32.0,-100.00,West,270,12.0,15.0,99,0.01,,,-99.99,,2013-01-27 12:42:00,
2013-01-27 12:52:00,32.0,32.0,-100.00,WSW,255,14.0,16.0,99,0.00,,,-99.99,,2013-01-27 12:52:00,
2013-01-27 13:02:00,32.0,32.0,-100.00,WSW,240,14.0,18.0,99,0.01,,,-99.99,,2013-01-27 13:02:00,
2013-01-27 13:11:00,32.0,32.0,-100.00,WSW,240,15.0,19.0,99,0.00,,,-99.99,,2013-01-27 13:11:00,
2013-01-27 13:22:00,32.0,32.0,-100.00,SW,235,15.0,19.0,98,0.00,,,-99.99,,2013-01-27 13:22:00,
2013-01-27 13:32:00,32.0,32.0,-100.00,WSW,240,14.0,18.0,98,0.00,,,-99.99,,2013-01-27 13:32:00,
2013-01-27 13:42:00,32.0,31.0,-100.00,SW,235,14.0,17.0,97,0.00,,,-99.99,,2013-01-27 13:42:00,
2013-01-27 13:52:00,32.0,31.0,-100.00,WSW,240,16.0,20.0,97,0.00,,,-99.99,,2013-01-27 13:52:00,
2013-01-27 14:02:00,32.0,31.0,-100.00,WSW,240,17.0,21.0,97,0.00,,,-99.99,,2013-01-27 14:02:00,
2013-01-27 14:11:00,32.0,31.0,-100.00,SW,235,17.0,22.0,97,0.00,,,-99.99,,2013-01-27 14:11:00,
2013-01-27 14:22:00,32.0,31.0,-100.00,SW,235,16.0,22.0,97,0.00,,,-99.99,,2013-01-27 14:22:00,
2013-01-27 14:32:00,32.0,31.0,-100.00,SW,235,16.0,23.0,97,0.00,,,-99.99,,2013-01-27 14:32:00,
2013-01-27 14:42:00,32.0,31.0,-100.00,SW,230,17.0,21.0,97,0.00,,,-99.99,,2013-01-27 14:42:00,
2013-01-27 14:52:00,32.0,31.0,-100.00,WSW,240,20.0,24.0,97,0.00,,,-99.99,,2013-01-27 14:52:00,
2013-01-27 15:02:00,33.0,32.0,-100.00,SW,235,19.0,24.0,97,0.00,,,-99.99,,2013-01-27 15:02:00,
2013-01-27 15:11:00,33.0,32.0,-100.00,WSW,255,22.0,27.0,96,0.00,,,-99.99,,2013-01-27 15:11:00,
2013-01-27 15:22:00,33.0,32.0,-100.00,WSW,255,19.0,26.0,96,0.00,,,-99.99,,2013-01-27 15:22:00,
2013-01-27 15:32:00,34.0,33.0,-100.00,WSW,240,20.0,24.0,96,0.00,,,-99.99,,2013-01-27 15:32:00,
2013-01-27 15:42:00,34.0,33.0,-100.00,SW,235,20.0,24.0,95,0.00,,,-99.99,,2013-01-27 15:42:00,
2013-01-27 15:52:00,34.0,33.0,-100.00,WSW,240,21.0,26.0,95,0.00,,,-99.99,,2013-01-27 15:52:00,
2013-01-27 16:02:00,35.0,33.0,-100.00,West,260,22.0,28.0,95,0.00,,,-99.99,,2013-01-27 16:02:00,
2013-01-27 16:11:00,34.0,33.0,-100.00,WSW,255,21.0,30.0,95,0.00,,,-99.99,,2013-01-27 16:11:00,
2013-01-27 16:21:00,34.0,32.0,-100.00,WSW,255,18.0,23.0,95,0.00,,,-99.99,,2013-01-27 16:21:00,
2013-01-27 16:32:00,34.0,33.0,-100.00,West,265,17.0,27.0,94,0.00,,,-99.99,,2013-01-27 16:32:00,
2013-01-27 16:42:00,34.0,33.0,-100.00,SW,215,20.0,29.0,94,0.00,,,-99.99,,2013-01-27 16:42:00,
2013-01-27 16:52:00,35.0,34.0,-100.00,West,260,21.0,26.0,94,0.00,,,-99.99,,2013-01-27 16:52:00,
2013-01-27 17:02:00,36.0,35.0,-100.00,West,260,17.0,25.0,93,0.00,,,-99.99,,2013-01-27 17:02:00,
2013-01-27 17:12:00,36.0,34.0,-100.00,WSW,245,19.0,24.0,92,0.00,,,-99.99,,2013-01-27 17:12:00,
2013-01-27 17:22:00,37.0,35.0,-100.00,WSW,250,17.0,21.0,89,0.00,,,-99.99,,2013-01-27 17:22:00,
2013-01-27 17:32:00,38.0,34.0,-100.00,WSW,255,16.0,22.0,87,0.00,,,-99.99,,2013-01-27 17:32:00,
2013-01-27 17:42:00,38.0,34.0,-100.00,WSW,245,17.0,22.0,84,0.00,,,-99.99,,2013-01-27 17:42:00,
2013-01-27 17:52:00,37.0,33.0,-100.00,WSW,245,17.0,22.0,83,0.00,,,-99.99,,2013-01-27 17:52:00,
2013-01-27 18:02:00,37.0,33.0,-100.00,WSW,255,14.0,21.0,84,0.00,,,-99.99,,2013-01-27 18:02:00,
2013-01-27 18:11:00,37.0,33.0,-100.00,WSW,255,11.0,18.0,84,0.00,,,-99.99,,2013-01-27 18:11:00,
2013-01-27 18:22:00,38.0,33.0,-100.00,SW,235,10.0,17.0,83,0.00,,,-99.99,,2013-01-27 18:22:00,
2013-01-27 18:32:00,38.0,33.0,-100.00,SW,220,11.0,17.0,82,0.00,,,-99.99,,2013-01-27 18:32:00,
2013-01-27 18:42:00,39.0,33.0,-100.00,West,270,12.0,17.0,79,0.00,,,-99.99,,2013-01-27 18:42:00,
2013-01-27 18:52:00,40.0,35.0,-100.00,West,270,10.0,15.0,81,0.00,,,-99.99,,2013-01-27 18:52:00,
2013-01-27 19:02:00,40.0,34.0,-100.00,West,265,9.0,14.0,79,0.00,,,-99.99,,2013-01-27 19:02:00,
2013-01-27 19:11:00,39.0,34.0,-100.00,WNW,285,11.0,14.0,79,0.00,,,-99.99,,2013-01-27 19:11:00,
2013-01-27 19:22:00,40.0,35.0,-100.00,West,270,9.0,14.0,81,0.00,,,-99.99,,2013-01-27 19:22:00,
2013-01-27 19:32:00,42.0,35.0,-100.00,WNW,295,11.0,15.0,78,0.00,,,-99.99,,2013-01-27 19:32:00,
2013-01-27 19:42:00,40.0,35.0,-100.00,West,270,14.0,18.0,79,0.00,,,-99.99,,2013-01-27 19:42:00,
2013-01-27 19:51:00,40.0,35.0,-100.00,West,275,12.0,17.0,82,0.00,,,-99.99,,2013-01-27 19:51:00,
2013-01-27 20:02:00,39.0,34.0,-100.00,West,270,12.0,17.0,82,0.00,,,-99.99,,2013-01-27 20:02:00,
2013-01-27 20:11:00,39.0,34.0,-100.00,West,260,12.0,16.0,82,0.00,,,-99.99,,2013-01-27 20:11:00,
2013-01-27 20:22:00,42.0,31.0,-100.00,SW,235,18.0,29.0,65,0.00,,,-99.99,,2013-01-27 20:22:00,
2013-01-27 20:32:00,43.0,30.0,-100.00,West,280,15.0,22.0,60,0.00,,,-99.99,,2013-01-27 20:32:00,
2013-01-27 20:42:00,42.0,28.0,-100.00,WSW,240,16.0,35.0,56,0.00,,,-99.99,,2013-01-27 20:42:00,
2013-01-27 20:52:00,43.0,28.0,-100.00,SW,235,16.0,36.0,55,0.00,,,-99.99,,2013-01-27 20:52:00,
2013-01-27 21:02:00,42.0,26.0,-100.00,SW,220,33.0,40.0,54,0.00,,,-99.99,,2013-01-27 21:02:00,
2013-01-27 21:12:00,42.0,27.0,-100.00,SW,230,24.0,40.0,54,0.00,,,-99.99,,2013-01-27 21:12:00,
2013-01-27 21:22:00,42.0,26.0,-100.00,SW,225,26.0,45.0,52,0.00,,,-99.99,,2013-01-27 21:22:00,
2013-01-27 21:33:00,42.0,25.0,-100.00,SW,225,28.0,39.0,51,0.00,,,-99.99,,2013-01-27 21:33:00,
2013-01-27 21:42:00,42.0,26.0,-100.00,SW,225,24.0,39.0,51,0.00,,,-99.99,,2013-01-27 21:42:00,
2013-01-27 21:52:00,42.0,25.0,-100.00,SW,230,24.0,37.0,51,0.00,,,-99.99,,2013-01-27 21:52:00,
2013-01-27 22:02:00,42.0,25.0,-100.00,SW,225,26.0,35.0,50,0.00,,,-99.99,,2013-01-27 22:02:00,
2013-01-27 22:11:00,42.0,25.0,-100.00,SW,225,26.0,35.0,49,0.00,,,-99.99,,2013-01-27 22:11:00,
2013-01-27 22:22:00,41.0,24.0,-100.00,SW,215,30.0,42.0,50,0.00,,,-99.99,,2013-01-27 22:22:00,
2013-01-27 22:32:00,41.0,25.0,-100.00,SW,225,27.0,43.0,51,0.00,,,-99.99,,2013-01-27 22:32:00,
2013-01-27 22:42:00,41.0,25.0,-100.00,SSW,210,24.0,35.0,53,0.00,,,-99.99,,2013-01-27 22:42:00,
2013-01-27 22:51:00,40.0,24.0,-100.00,SW,220,26.0,39.0,54,0.00,,,-99.99,,2013-01-27 22:51:00,
2013-01-27 23:02:00,39.0,24.0,-100.00,SW,225,24.0,37.0,54,0.00,,,-99.99,,2013-01-27 23:02:00,
2013-01-27 23:12:00,39.0,24.0,-100.00,SW,220,29.0,35.0,54,0.00,,,-99.99,,2013-01-27 23:12:00,
2013-01-27 23:21:00,39.0,24.0,-100.00,SW,225,25.0,32.0,55,0.00,,,-99.99,,2013-01-27 23:21:00,
2013-01-27 23:32:00,39.0,24.0,-100.00,WSW,240,22.0,32.0,55,0.00,,,-99.99,,2013-01-27 23:32:00,
2013-01-27 23:41:00,38.0,25.0,-100.00,SW,220,20.0,30.0,57,0.00,,,-99.99,,2013-01-27 23:41:00,
2013-01-27 23:52:00,38.0,26.0,-100.00,SW,215,23.0,30.0,59,0.00,,,-99.99,,2013-01-27 23:52:00,